Griffithtown, Arkansas
Current Conditions -  °F | °C
As of 12:17 AM on Sunday 26 Oct 2014 (Local Time) from KADF Reporting Station
Moderate Fog Moderate Fog  
Wind Chill: 61°   Ceiling: 200
Heat Index: 61°   Visibility: 0mi
Dew Point: 61°   Wind: 0mph
Humidity: 100%   Direction: NA
Pressure: 30.05"   Gusts: NA
Location:  34.0941°N, 93.0475°W
Report Text: KADF 260517Z AUTO 00000KT M1/4SM FG OVC002 16/16 A3005 RMK AO2
Loading
Personal Weather Stations






























Interactive Weather Map
Tropical Storm Tracking
New forecast layout! Learn more

10-Day Weather Forecast

Advertisements
Track Severe Weather on mobile